createdAt,value
2019-05-16T00:01:38.185Z,6.67
2019-05-16T00:03:13.148Z,6.70
2019-05-16T00:04:54.195Z,6.64
2019-05-16T00:06:29.994Z,6.59
2019-05-16T00:08:17.747Z,6.55
2019-05-16T00:09:52.757Z,6.56
2019-05-16T00:11:29.113Z,6.51
2019-05-16T00:13:05.352Z,6.50
2019-05-16T00:14:41.409Z,6.48
2019-05-16T00:16:18.658Z,6.44
2019-05-16T00:17:55.284Z,6.40
2019-05-16T00:19:30.655Z,6.38
2019-05-16T00:21:08.570Z,6.40
2019-05-16T00:22:43.954Z,6.41
2019-05-16T00:24:23.062Z,6.48
2019-05-16T00:25:58.716Z,6.48
2019-05-16T00:27:34.663Z,6.47
2019-05-16T00:29:11.615Z,6.44
2019-05-16T00:30:48.710Z,6.41
2019-05-16T00:32:28.162Z,6.44
2019-05-16T00:34:04.215Z,6.40
2019-05-16T00:35:40.080Z,6.38
2019-05-16T00:37:18.183Z,6.35
2019-05-16T00:38:53.580Z,6.37
2019-05-16T00:40:29.540Z,6.38
2019-05-16T00:42:04.791Z,6.41
2019-05-16T00:43:41.091Z,6.40
2019-05-16T00:45:19.322Z,6.40
2019-05-16T00:46:58.047Z,6.44
2019-05-16T00:48:33.577Z,6.44
2019-05-16T00:50:09.572Z,6.43
2019-05-16T00:51:45.293Z,6.48
2019-05-16T00:53:21.095Z,6.43
2019-05-16T00:54:57.981Z,6.43
2019-05-16T00:56:38.323Z,6.40
2019-05-16T00:58:18.514Z,6.47
2019-05-16T00:59:59.375Z,6.50
2019-05-16T01:01:40.181Z,6.54
2019-05-16T01:03:16.501Z,6.49
2019-05-16T01:04:51.778Z,6.52
2019-05-16T01:06:31.244Z,6.52
2019-05-16T01:08:09.666Z,6.50
2019-05-16T01:09:48.816Z,6.52
2019-05-16T01:11:24.532Z,6.53
2019-05-16T01:13:04.803Z,6.55
2019-05-16T01:14:39.891Z,6.59
2019-05-16T01:16:15.851Z,6.57
2019-05-16T01:17:51.418Z,6.65
2019-05-16T01:19:27.814Z,6.61
2019-05-16T01:21:07.705Z,6.62
2019-05-16T01:22:42.671Z,6.62
2019-05-16T01:24:18.781Z,6.64
2019-05-16T01:25:55.197Z,6.66
2019-05-16T01:27:31.968Z,6.63
2019-05-16T01:29:11.846Z,6.69
2019-05-16T01:30:54.450Z,6.68
2019-05-16T01:32:32.882Z,6.68
2019-05-16T01:34:08.427Z,6.69
2019-05-16T01:35:44.119Z,6.66
2019-05-16T01:37:19.214Z,6.65
2019-05-16T01:38:55.107Z,6.61
2019-05-16T01:40:30.636Z,6.60
2019-05-16T01:42:08.031Z,6.60
2019-05-16T01:43:43.265Z,6.62
2019-05-16T01:45:19.373Z,6.62
2019-05-16T01:46:54.440Z,6.62
2019-05-16T01:48:30.602Z,6.63
2019-05-16T01:50:08.716Z,6.67
2019-05-16T01:51:44.084Z,6.62
2019-05-16T01:53:19.978Z,6.63
2019-05-16T01:54:58.548Z,6.65
2019-05-16T01:56:33.067Z,6.64
2019-05-16T01:58:09.544Z,6.65
2019-05-16T01:59:45.035Z,6.65
2019-05-16T02:01:20.786Z,6.65
2019-05-16T02:03:00.371Z,6.63
2019-05-16T02:04:37.841Z,6.61
2019-05-16T02:06:13.718Z,6.60
2019-05-16T02:07:49.585Z,6.61
2019-05-16T02:09:27.915Z,6.58
2019-05-16T02:11:03.137Z,6.60
2019-05-16T02:12:38.653Z,6.67
2019-05-16T02:14:15.097Z,6.64
2019-05-16T02:15:50.259Z,6.62
2019-05-16T02:17:28.679Z,6.65
2019-05-16T02:19:03.103Z,6.62
2019-05-16T02:20:41.027Z,6.59
2019-05-16T02:22:17.942Z,6.65
2019-05-16T02:23:58.412Z,6.65
2019-05-16T02:25:37.710Z,6.63
2019-05-16T02:27:15.624Z,6.59
2019-05-16T02:28:55.336Z,6.59
2019-05-16T02:30:31.607Z,6.61
2019-05-16T02:32:07.287Z,6.64
2019-05-16T02:33:43.566Z,6.59
2019-05-16T02:35:21.148Z,6.60
2019-05-16T02:37:19.079Z,6.60
2019-05-16T02:38:35.515Z,6.61
2019-05-16T02:40:12.504Z,6.62
2019-05-16T02:41:51.997Z,6.60
2019-05-16T02:43:31.030Z,6.61
2019-05-16T02:45:23.893Z,6.61
2019-05-16T02:47:01.544Z,6.62
2019-05-16T02:48:35.942Z,6.66
2019-05-16T02:50:13.178Z,6.64
2019-05-16T02:51:51.035Z,6.67
2019-05-16T02:53:30.875Z,6.67
2019-05-16T02:55:05.045Z,6.67
2019-05-16T02:56:41.873Z,6.67
2019-05-16T02:58:17.366Z,6.64
2019-05-16T02:59:53.406Z,6.67
2019-05-16T03:01:31.713Z,6.64
2019-05-16T03:03:07.801Z,6.62
2019-05-16T03:04:44.292Z,6.64
2019-05-16T03:06:23.311Z,6.68
2019-05-16T03:08:01.269Z,6.65
2019-05-16T03:09:36.926Z,6.64
2019-05-16T03:11:15.619Z,6.61
2019-05-16T03:12:53.421Z,6.67
2019-05-16T03:14:32.002Z,6.72
2019-05-16T03:16:15.557Z,6.63
2019-05-16T03:17:53.674Z,6.60
2019-05-16T03:19:35.425Z,6.57
2019-05-16T03:21:13.787Z,6.62
2019-05-16T03:22:52.064Z,6.57
2019-05-16T03:24:30.971Z,6.54
2019-05-16T03:26:06.548Z,6.58
2019-05-16T03:27:41.837Z,6.52
2019-05-16T03:29:17.911Z,6.56
2019-05-16T03:30:54.832Z,6.53
2019-05-16T03:34:47.691Z,6.47
2019-05-16T03:36:25.702Z,6.48
2019-05-16T03:38:12.098Z,6.42
2019-05-16T03:39:51.455Z,6.43
2019-05-16T03:41:26.842Z,6.43
2019-05-16T03:43:02.516Z,6.40
2019-05-16T03:44:42.152Z,6.40
2019-05-16T03:46:21.202Z,6.38
2019-05-16T03:47:54.659Z,6.38
2019-05-16T03:49:31.593Z,6.37
2019-05-16T03:51:06.866Z,6.39
2019-05-16T03:52:45.792Z,6.38
2019-05-16T03:54:21.345Z,6.40
2019-05-16T03:55:57.481Z,6.42
2019-05-16T03:57:32.829Z,6.42
2019-05-16T03:59:10.999Z,6.41
2019-05-16T04:00:54.177Z,6.43
2019-05-16T04:02:30.964Z,6.40
2019-05-16T04:04:06.989Z,6.42
2019-05-16T04:05:42.782Z,6.45
2019-05-16T04:07:21.198Z,6.43
2019-05-16T04:08:56.048Z,6.43
2019-05-16T04:10:31.226Z,6.42
2019-05-16T04:12:06.854Z,6.39
2019-05-16T04:13:42.098Z,6.41
2019-05-16T04:15:21.491Z,6.39
2019-05-16T04:17:01.346Z,6.41
2019-05-16T04:18:36.050Z,6.50
2019-05-16T04:20:11.947Z,6.53
2019-05-16T04:21:50.859Z,6.50
2019-05-16T04:23:24.875Z,6.50
2019-05-16T04:25:01.986Z,6.58
2019-05-16T04:26:40.927Z,6.52
2019-05-16T04:28:15.004Z,6.54
2019-05-16T04:29:54.059Z,6.57
2019-05-16T04:31:31.021Z,6.50
2019-05-16T04:33:06.288Z,6.53
2019-05-16T04:34:42.218Z,6.53
2019-05-16T04:36:17.386Z,6.50
2019-05-16T04:37:53.894Z,6.48
2019-05-16T04:39:31.990Z,6.45
2019-05-16T04:41:07.230Z,6.45
2019-05-16T04:42:42.365Z,6.50
2019-05-16T04:44:24.104Z,6.52
2019-05-16T04:46:01.363Z,6.46
2019-05-16T04:47:36.877Z,6.53
2019-05-16T04:49:12.522Z,6.59
2019-05-16T04:50:51.568Z,6.67
2019-05-16T04:52:25.508Z,6.64
2019-05-16T04:54:02.430Z,6.75
2019-05-16T04:55:42.002Z,6.72
2019-05-16T04:57:20.630Z,6.71
2019-05-16T04:58:54.363Z,6.76
2019-05-16T05:00:31.881Z,6.88
2019-05-16T05:02:07.433Z,6.92
2019-05-16T05:04:00.513Z,7.13
2019-05-16T05:05:21.540Z,7.13
2019-05-16T05:06:56.952Z,7.32
2019-05-16T05:08:48.967Z,7.36
2019-05-16T05:10:11.346Z,7.34
2019-05-16T05:11:47.259Z,7.26
2019-05-16T05:13:22.805Z,7.17
2019-05-16T05:15:03.922Z,7.21
2019-05-16T05:16:41.327Z,7.19
2019-05-16T05:18:17.116Z,7.27
2019-05-16T05:19:55.816Z,7.38
2019-05-16T05:21:33.397Z,7.47
2019-05-16T05:23:09.877Z,7.59
2019-05-16T05:24:45.815Z,7.44
2019-05-16T05:26:22.766Z,7.46
2019-05-16T05:28:00.579Z,7.50
2019-05-16T05:29:35.943Z,7.41
2019-05-16T05:31:12.896Z,7.31
2019-05-16T05:32:50.252Z,7.28
2019-05-16T05:34:26.326Z,7.48
2019-05-16T05:36:03.335Z,7.43
2019-05-16T05:37:41.269Z,7.28
2019-05-16T05:39:21.047Z,7.31
2019-05-16T05:40:56.430Z,7.37
2019-05-16T05:42:31.825Z,7.45
2019-05-16T05:44:07.531Z,7.43
2019-05-16T05:45:42.587Z,7.29
2019-05-16T05:47:25.719Z,7.34
2019-05-16T05:49:02.232Z,7.33
2019-05-16T05:50:37.444Z,7.36
2019-05-16T05:52:13.651Z,7.30
2019-05-16T05:53:50.978Z,7.33
2019-05-16T05:55:26.877Z,7.52
2019-05-16T05:57:02.098Z,7.59
2019-05-16T05:58:37.815Z,7.33
2019-05-16T06:00:14.889Z,7.18
2019-05-16T06:01:56.020Z,7.25
2019-05-16T06:03:32.845Z,7.25
2019-05-16T06:05:10.715Z,7.31
2019-05-16T06:06:45.717Z,7.31
2019-05-16T06:08:21.526Z,7.37
2019-05-16T06:09:56.954Z,7.36
2019-05-16T06:11:32.568Z,7.14
2019-05-16T06:13:11.126Z,7.17
2019-05-16T06:14:50.437Z,7.05
2019-05-16T06:16:26.474Z,7.06
2019-05-16T06:18:04.267Z,7.14
2019-05-16T06:19:40.212Z,7.22
2019-05-16T06:21:17.249Z,7.28
2019-05-16T06:22:52.332Z,7.18
2019-05-16T06:24:30.391Z,7.05
2019-05-16T06:26:05.499Z,7.00
2019-05-16T06:27:42.859Z,7.12
2019-05-16T06:29:22.865Z,7.10
2019-05-16T06:31:02.562Z,7.11
2019-05-16T06:32:41.325Z,7.07
2019-05-16T06:34:17.887Z,6.96
2019-05-16T06:35:53.958Z,7.03
2019-05-16T06:37:31.057Z,7.00
2019-05-16T06:39:11.212Z,7.09
2019-05-16T06:40:49.177Z,7.29
2019-05-16T06:42:24.392Z,7.35
2019-05-16T06:44:01.246Z,7.38
2019-05-16T06:45:37.354Z,7.37
2019-05-16T06:47:19.606Z,7.53
2019-05-16T06:48:54.549Z,7.59
2019-05-16T06:50:31.490Z,7.64
2019-05-16T06:52:10.261Z,7.56
2019-05-16T06:53:46.670Z,7.77
2019-05-16T06:55:24.680Z,7.68
2019-05-16T06:57:01.548Z,7.87
2019-05-16T06:58:47.619Z,7.77
2019-05-16T07:00:20.930Z,8.13
2019-05-16T07:02:00.420Z,8.25
2019-05-16T07:03:40.000Z,8.43
2019-05-16T07:05:16.614Z,8.67
2019-05-16T07:06:58.938Z,8.53
2019-05-16T07:08:40.114Z,8.40
2019-05-16T07:10:30.765Z,8.32
2019-05-16T07:12:17.347Z,8.27
2019-05-16T07:13:56.042Z,8.26
2019-05-16T07:15:34.484Z,8.42
2019-05-16T07:17:13.408Z,8.33
2019-05-16T07:18:54.804Z,8.45
2019-05-16T07:20:31.400Z,8.58
2019-05-16T07:22:11.356Z,8.36
2019-05-16T07:23:51.179Z,8.44
2019-05-16T07:25:33.331Z,8.37
2019-05-16T07:27:12.298Z,8.37
2019-05-16T07:28:47.334Z,8.44
2019-05-16T07:30:26.063Z,8.44
2019-05-16T07:32:03.302Z,8.53
2019-05-16T07:33:45.113Z,8.55
2019-05-16T07:35:24.374Z,8.62
2019-05-16T07:37:00.521Z,8.62
2019-05-16T07:38:39.872Z,8.53
2019-05-16T07:40:26.611Z,8.46
2019-05-16T07:41:59.935Z,8.27
2019-05-16T07:43:36.606Z,8.24
2019-05-16T07:45:21.961Z,8.32
2019-05-16T07:47:00.803Z,8.30
2019-05-16T07:48:36.513Z,8.42
2019-05-16T07:50:12.502Z,8.34
2019-05-16T07:51:55.051Z,8.23
2019-05-16T07:53:33.152Z,8.44
2019-05-16T07:55:10.716Z,8.53
2019-05-16T07:56:58.804Z,8.57
2019-05-16T07:58:33.691Z,8.68
2019-05-16T08:00:10.951Z,8.59
2019-05-16T08:01:47.955Z,8.65
2019-05-16T08:03:25.058Z,8.60
2019-05-16T08:05:01.809Z,8.66
2019-05-16T08:06:41.705Z,8.65
2019-05-16T08:08:24.131Z,8.65
2019-05-16T08:10:04.286Z,8.71
2019-05-16T08:11:41.084Z,8.77
2019-05-16T08:13:17.829Z,8.91
2019-05-16T08:14:57.162Z,8.99
2019-05-16T08:16:33.002Z,9.11
2019-05-16T08:18:12.237Z,9.31
2019-05-16T08:20:04.438Z,9.27
2019-05-16T08:21:41.215Z,9.23
2019-05-16T08:23:17.582Z,9.39
2019-05-16T08:24:53.930Z,9.53
2019-05-16T08:26:32.358Z,9.64
2019-05-16T08:28:07.681Z,9.83
2019-05-16T08:29:51.312Z,9.80
2019-05-16T08:31:32.069Z,9.93
2019-05-16T08:33:27.924Z,9.93
2019-05-16T08:35:10.915Z,9.93
2019-05-16T08:36:45.833Z,9.95
2019-05-16T08:38:22.292Z,10.01
2019-05-16T08:40:05.197Z,10.11
2019-05-16T08:41:43.954Z,10.30
2019-05-16T08:43:21.871Z,10.71
2019-05-16T08:45:01.151Z,10.90
2019-05-16T08:46:35.993Z,10.40
2019-05-16T08:48:11.683Z,10.29
2019-05-16T08:49:52.226Z,10.34
2019-05-16T08:51:27.612Z,10.58
2019-05-16T08:53:12.937Z,10.44
2019-05-16T08:54:46.049Z,10.27
2019-05-16T08:56:25.253Z,10.86
2019-05-16T08:58:02.504Z,11.17
2019-05-16T08:59:42.055Z,11.00
2019-05-16T09:01:21.446Z,10.76
2019-05-16T09:03:01.657Z,10.87
2019-05-16T09:04:36.722Z,10.68
2019-05-16T09:06:12.793Z,10.59
2019-05-16T09:08:00.705Z,11.08
2019-05-16T09:09:44.138Z,11.32
2019-05-16T09:11:29.319Z,11.26
2019-05-16T09:12:57.223Z,11.13
2019-05-16T09:14:36.282Z,11.21
2019-05-16T09:16:10.965Z,11.29
2019-05-16T09:17:47.683Z,10.96
2019-05-16T09:19:23.495Z,11.02
2019-05-16T09:21:07.055Z,10.85
2019-05-16T09:22:43.262Z,11.07
2019-05-16T09:24:19.532Z,11.05
2019-05-16T09:25:58.472Z,11.17
2019-05-16T09:27:38.188Z,11.55
2019-05-16T09:29:16.760Z,12.07
2019-05-16T09:31:00.945Z,12.59
2019-05-16T09:32:42.963Z,12.49
2019-05-16T09:34:18.160Z,12.57
2019-05-16T09:35:57.309Z,12.51
2019-05-16T09:37:33.335Z,12.71
2019-05-16T09:39:12.211Z,12.69
2019-05-16T09:40:57.041Z,13.02
2019-05-16T09:42:34.082Z,12.72
2019-05-16T09:44:10.322Z,12.90
2019-05-16T09:45:47.272Z,13.06
2019-05-16T09:47:23.671Z,12.47
2019-05-16T09:49:15.791Z,11.90
2019-05-16T09:50:38.320Z,11.94
2019-05-16T09:52:16.788Z,12.56
2019-05-16T09:53:56.703Z,12.49
2019-05-16T09:55:37.365Z,12.28
2019-05-16T09:57:13.913Z,12.92
2019-05-16T09:58:50.566Z,12.88
2019-05-16T10:00:28.161Z,12.44
2019-05-16T10:02:20.251Z,13.45
2019-05-16T10:03:58.201Z,13.82
2019-05-16T10:05:36.988Z,13.87
2019-05-16T10:07:17.883Z,14.12
2019-05-16T10:08:58.782Z,14.69
2019-05-16T10:10:41.530Z,14.46
2019-05-16T10:12:20.841Z,14.67
2019-05-16T10:14:07.070Z,14.93
2019-05-16T10:15:47.470Z,14.27
2019-05-16T10:17:32.400Z,14.55
2019-05-16T10:19:16.928Z,15.02
2019-05-16T10:20:59.016Z,14.69
2019-05-16T10:22:37.431Z,15.20
2019-05-16T10:24:14.490Z,15.19
2019-05-16T10:25:51.207Z,15.31
2019-05-16T10:27:30.850Z,15.10
2019-05-16T10:29:11.025Z,15.67
2019-05-16T10:30:49.698Z,15.66
2019-05-16T10:32:27.227Z,15.63
2019-05-16T10:34:03.021Z,14.45
2019-05-16T10:35:39.439Z,14.49
2019-05-16T10:37:17.563Z,14.38
2019-05-16T10:38:53.461Z,13.95
2019-05-16T10:40:30.257Z,13.95
2019-05-16T10:42:06.919Z,14.30
2019-05-16T10:43:47.569Z,13.83
2019-05-16T10:45:23.810Z,13.64
2019-05-16T10:46:59.646Z,13.59
2019-05-16T10:48:37.549Z,13.46
2019-05-16T10:50:27.428Z,13.69
2019-05-16T10:52:03.386Z,13.89
2019-05-16T10:55:24.500Z,14.20
2019-05-16T10:57:01.851Z,14.31
2019-05-16T10:59:03.832Z,14.06
2019-05-16T11:00:51.449Z,13.61
2019-05-16T11:02:00.750Z,13.28
2019-05-16T11:03:39.684Z,12.83
2019-05-16T11:05:28.903Z,13.22
2019-05-16T11:06:54.511Z,12.92
2019-05-16T11:08:30.957Z,13.00
2019-05-16T11:10:07.560Z,13.58
2019-05-16T11:11:49.776Z,13.94
2019-05-16T11:13:28.133Z,13.49
2019-05-16T11:15:18.190Z,13.47
2019-05-16T11:16:58.070Z,14.02
2019-05-16T11:18:37.640Z,13.48
2019-05-16T11:20:20.496Z,13.46
2019-05-16T11:22:00.307Z,13.60
2019-05-16T11:23:36.842Z,13.18
2019-05-16T11:25:24.683Z,12.89
2019-05-16T11:26:54.156Z,12.83
2019-05-16T11:28:33.569Z,12.92
2019-05-16T11:30:17.948Z,13.07
2019-05-16T11:31:51.546Z,12.81
2019-05-16T11:33:28.351Z,13.34
2019-05-16T11:35:07.259Z,13.56
2019-05-16T11:36:52.386Z,13.60
2019-05-16T11:38:30.847Z,13.54
2019-05-16T11:40:08.835Z,13.41
2019-05-16T11:41:47.504Z,13.11
2019-05-16T11:43:23.999Z,12.35
2019-05-16T11:45:00.779Z,12.51
2019-05-16T11:46:38.098Z,12.49
2019-05-16T11:48:16.877Z,12.76
2019-05-16T11:49:52.232Z,12.37
2019-05-16T11:51:30.703Z,12.64
2019-05-16T11:53:17.538Z,12.77
2019-05-16T11:54:54.293Z,13.15
2019-05-16T11:56:33.941Z,12.90
2019-05-16T11:58:10.696Z,12.29
2019-05-16T11:59:50.916Z,12.14
2019-05-16T12:01:27.797Z,12.27
2019-05-16T12:03:04.796Z,11.89
2019-05-16T12:04:50.768Z,12.36
2019-05-16T12:06:29.834Z,12.34
2019-05-16T12:08:07.640Z,12.37
2019-05-16T12:09:50.029Z,12.30
2019-05-16T12:11:21.883Z,12.58
2019-05-16T12:13:01.248Z,12.17
2019-05-16T12:14:40.823Z,12.10
2019-05-16T18:44:47.049Z,6.90
2019-05-16T18:46:22.560Z,6.91
2019-05-16T18:48:07.358Z,6.90
2019-05-16T18:49:42.795Z,6.94
2019-05-16T18:51:36.972Z,6.87
2019-05-16T18:53:17.857Z,6.83
2019-05-16T18:54:53.650Z,6.84
2019-05-16T18:56:40.634Z,6.88
2019-05-16T18:58:19.536Z,6.92
2019-05-16T18:59:59.825Z,6.89
2019-05-16T19:01:39.676Z,6.86
2019-05-16T19:03:23.413Z,6.85
2019-05-16T19:05:00.812Z,6.87
2019-05-16T19:06:59.539Z,6.88
2019-05-16T19:09:07.137Z,6.79
2019-05-16T19:10:43.756Z,6.78
2019-05-16T19:12:27.156Z,6.78
2019-05-16T19:14:13.047Z,6.86
2019-05-16T19:15:53.314Z,6.80
2019-05-16T19:17:36.967Z,6.76
2019-05-16T19:19:20.658Z,6.81
2019-05-16T19:21:10.282Z,6.84
2019-05-16T19:22:50.152Z,6.83
2019-05-16T19:24:27.808Z,6.78
2019-05-16T19:26:08.646Z,6.71
2019-05-16T19:27:46.429Z,6.73
2019-05-16T19:29:29.344Z,6.74
2019-05-16T19:31:08.370Z,6.69
2019-05-16T19:32:49.206Z,6.62
2019-05-16T19:34:27.060Z,6.58
2019-05-16T19:36:02.481Z,6.61
2019-05-16T19:37:43.547Z,6.61
2019-05-16T19:39:20.372Z,6.59
2019-05-16T19:40:57.466Z,6.58
2019-05-16T19:42:37.357Z,6.58
2019-05-16T19:44:13.434Z,6.57
2019-05-16T19:45:52.977Z,6.61
2019-05-16T19:47:37.124Z,6.64
2019-05-16T19:49:11.193Z,6.63
2019-05-16T19:51:10.638Z,6.70
2019-05-16T19:52:47.236Z,6.75
2019-05-16T19:54:40.228Z,6.79
2019-05-16T19:56:22.598Z,6.79
2019-05-16T19:57:59.752Z,6.81
2019-05-16T19:59:42.356Z,6.77
2019-05-16T20:01:19.416Z,6.79
2019-05-16T20:02:58.687Z,6.86
2019-05-16T20:04:39.522Z,6.82
2019-05-16T20:09:02.759Z,6.84
2019-05-16T20:10:39.604Z,6.79
2019-05-16T20:12:16.948Z,6.82
2019-05-16T20:13:57.328Z,6.83
2019-05-16T20:15:36.836Z,6.82
2019-05-16T20:17:16.144Z,6.83
2019-05-16T20:18:56.299Z,6.83
2019-05-16T20:20:42.669Z,6.82
2019-05-16T20:22:21.819Z,6.80
2019-05-16T20:24:04.602Z,6.80
2019-05-16T20:25:47.080Z,6.85
2019-05-16T20:27:36.749Z,6.83
2019-05-16T20:29:11.963Z,6.81
2019-05-16T20:30:51.258Z,6.80
2019-05-16T20:32:32.435Z,6.75
2019-05-16T20:34:14.541Z,6.71
2019-05-16T20:35:57.552Z,6.71
2019-05-16T20:37:33.228Z,6.68
2019-05-16T20:39:09.305Z,6.72
2019-05-16T20:40:46.597Z,6.71
2019-05-16T20:42:22.087Z,6.69
2019-05-16T20:43:59.372Z,6.66
2019-05-16T20:45:42.767Z,6.67
2019-05-16T20:47:22.182Z,6.71
2019-05-16T20:48:59.744Z,6.60
2019-05-16T20:50:41.334Z,6.60
2019-05-16T20:52:19.832Z,6.59
2019-05-16T20:54:01.465Z,6.61
2019-05-16T20:55:38.678Z,6.61
2019-05-16T20:57:17.273Z,6.60
2019-05-16T20:58:52.870Z,6.61
2019-05-16T21:00:32.830Z,6.65
2019-05-16T21:02:11.132Z,6.62
2019-05-16T21:03:58.229Z,6.66
2019-05-16T21:05:37.903Z,6.60
2019-05-16T21:07:11.997Z,6.62
2019-05-16T21:08:49.680Z,6.65
2019-05-16T21:10:27.453Z,6.59
2019-05-16T21:12:08.054Z,6.60
2019-05-16T21:13:44.077Z,6.61
2019-05-16T21:15:22.866Z,6.58
2019-05-16T21:17:01.398Z,6.57
2019-05-16T21:18:37.886Z,6.60
2019-05-16T21:20:20.660Z,6.60
2019-05-16T21:22:01.637Z,6.60
2019-05-16T21:23:42.872Z,6.58
2019-05-16T21:25:26.381Z,6.53
2019-05-16T21:27:06.974Z,6.52
2019-05-16T21:28:47.027Z,6.49
2019-05-16T21:30:23.621Z,6.51
2019-05-16T21:32:01.962Z,6.50
2019-05-16T21:33:39.389Z,6.49
2019-05-16T21:35:15.387Z,6.46
2019-05-16T21:36:51.423Z,6.47
2019-05-16T21:38:29.729Z,6.48
2019-05-16T21:40:11.405Z,6.54
2019-05-16T21:41:47.128Z,6.52
2019-05-16T21:44:57.949Z,6.46
2019-05-16T21:45:06.406Z,6.50
2019-05-16T21:46:46.949Z,6.50
2019-05-16T21:48:22.530Z,6.49
2019-05-16T21:49:59.461Z,6.50
2019-05-16T21:51:37.282Z,6.52
2019-05-16T21:53:14.671Z,6.53
2019-05-16T21:54:50.427Z,6.48
2019-05-16T21:56:30.721Z,6.50
2019-05-16T21:58:07.362Z,6.42
2019-05-16T21:59:42.979Z,6.40
2019-05-16T22:01:22.023Z,6.43
2019-05-16T22:02:57.495Z,6.44
2019-05-16T22:04:33.601Z,6.51
2019-05-16T22:06:11.970Z,6.47
2019-05-16T22:07:48.041Z,6.51
2019-05-16T22:09:23.412Z,6.47
2019-05-16T22:11:02.244Z,6.48
2019-05-16T22:12:40.172Z,6.44
2019-05-16T22:14:17.078Z,6.52
2019-05-16T22:15:52.409Z,6.50
2019-05-16T22:17:28.419Z,6.50
2019-05-16T22:19:03.833Z,6.46
2019-05-16T22:20:39.447Z,6.45
2019-05-16T22:22:17.485Z,6.43
2019-05-16T22:23:53.513Z,6.48
2019-05-16T22:25:28.633Z,6.44
2019-05-16T22:27:06.700Z,6.45
2019-05-16T22:28:41.040Z,6.44
2019-05-16T22:30:18.485Z,6.48
2019-05-16T22:31:53.860Z,6.42
2019-05-16T22:33:31.291Z,6.41
2019-05-16T22:35:12.388Z,6.39
2019-05-16T22:36:57.364Z,6.38
2019-05-16T22:38:34.512Z,6.41
2019-05-16T22:40:09.988Z,6.42
2019-05-16T22:41:48.158Z,6.39
2019-05-16T22:43:26.647Z,6.37
2019-05-16T22:45:08.908Z,6.40
2019-05-16T22:46:46.474Z,6.42
2019-05-16T22:48:22.377Z,6.39
2019-05-16T22:50:00.581Z,6.43
2019-05-16T22:51:38.075Z,6.43
2019-05-16T22:53:17.246Z,6.45
2019-05-16T22:54:52.592Z,6.47
2019-05-16T22:56:28.091Z,6.48
2019-05-16T22:58:17.988Z,6.50
2019-05-16T22:59:44.943Z,6.52
2019-05-16T23:01:23.022Z,6.44
2019-05-16T23:03:02.190Z,6.48
2019-05-16T23:04:47.304Z,6.46
2019-05-16T23:06:26.798Z,6.42
2019-05-16T23:08:07.285Z,6.52
2019-05-16T23:09:41.328Z,6.49
2019-05-16T23:11:17.000Z,6.48
2019-05-16T23:12:52.567Z,6.48
2019-05-16T23:14:36.181Z,6.47
2019-05-16T23:16:12.119Z,6.46
2019-05-16T23:17:49.029Z,6.46
2019-05-16T23:19:27.777Z,6.50
2019-05-16T23:21:03.020Z,6.50
2019-05-16T23:22:38.654Z,6.50
2019-05-16T23:24:13.820Z,6.50
2019-05-16T23:26:00.083Z,6.47
2019-05-16T23:27:36.771Z,6.48
2019-05-16T23:29:12.831Z,6.42
2019-05-16T23:30:48.196Z,6.40
2019-05-16T23:32:23.811Z,6.41
2019-05-16T23:34:00.867Z,6.39
2019-05-16T23:35:49.106Z,6.44
2019-05-16T23:37:27.493Z,6.41
2019-05-16T23:39:06.258Z,6.42
2019-05-16T23:40:41.715Z,6.43
2019-05-16T23:42:17.358Z,6.44
2019-05-16T23:44:36.652Z,6.48
2019-05-16T23:46:16.639Z,6.43
2019-05-16T23:47:52.393Z,6.41
2019-05-16T23:49:27.931Z,6.41
2019-05-16T23:51:03.639Z,6.39
2019-05-16T23:52:39.048Z,6.42
2019-05-16T23:54:17.240Z,6.38
2019-05-16T23:55:52.082Z,6.37
2019-05-16T23:57:27.744Z,6.36
2019-05-16T23:59:03.575Z,6.39
